Rufus, OR (97050)

11:50 PM PST on December 08, 2016 (GMT -0800)
The Dalles, East | | Change Station

Elev 354 ft 45.60 °N, 121.13 °W | Updated 12 seconds ago

Overcast
Overcast
22.5 °F
Feels Like 22 °F
N
0.0
Wind Variable Wind from SE
Gusts 0.0 mph

Today
High -- | Low -- °F
--% Chance of Precip.
Yesterday
High -- | Low -- °F
Precip. -- in
Pressure 30.25 in
Visibility 9.0 miles
Clouds Few 700 ft
Mostly Cloudy 3400 ft
Overcast 4200 ft
Windchill 22 °F
Dew Point 17 °F
Humidity 81%
Rainfall 0.00 in
Snow Depth Not available.
7:31 AM 4:18 PM
Waxing Gibbous, 71% visible
SPECI KDLS 090739Z AUTO 13003KT 9SM FEW007 BKN034 OVC042 M05/M06 A3025 RMK AO2 SNE33 P0000 T10501061
Pressure 30.25 in
Visibility 9.0 miles
Clouds Few 700 ft
Mostly Cloudy 3400 ft
Overcast 4200 ft
Windchill 22 °F
Dew Point 17 °F
Humidity 81%
Rainfall 0.00 in
Snow Depth Not available.
7:31 AM 4:18 PM
Waxing Gibbous, 71% visible
SPECI KDLS 090739Z AUTO 13003KT 9SM FEW007 BKN034 OVC042 M05/M06 A3025 RMK AO2 SNE33 P0000 T10501061

10-Day Weather Forecast

Almanac

Astronomy

Dec. 08, 2016 Rise Set
Actual Time
Civil Twilight
Nautical Twilight
Astronomical Twilight
Moon
Length of Visible Light
Length of Day
Tomorrow will be .
, % of the Moon is Illuminated

Today's Extremes

State Highs State Lows

Community

WunderPhotos

Upload Photos

1,956,374 photos uploaded!

WunderBlog® & News

Nearby

Air Quality

  Air Quality AQ Index Pollutant
Not available.

Snow Depth

Station Depth Elevation

Earthquake Activity

City Distance Mag. Time & Date
Minimum magnitude displayed is 2.5.

Coastal Water Temperatures

Place Temperature

Stations

Nearby Weather Stations

Station Location Temp. Windchill Dew Point Humidity Wind Precip. Elev Updated Type
                   

Watches & Warnings

There are currently no watches in effect.